Time;durP1;ratioP1;P1;durP2;ratioP2;P2;SDS_P1;SDS_P2;PMS_P1;PMS_P2;Temp;Humidity;BMP_temperature;BMP_pressure;BME280_temperature;BME280_humidity;BME280_pressure;Samples;Min_cycle;Max_cycle;Signal;HPM_P1;HPM_P2
2021/12/06 00:00:32;;;;;;;7.22;1.90;;;10.90;99.90;;;;;;4934486;29;20046;-75
2021/12/06 00:04:05;;;;;;;3.63;1.80;;;10.90;99.90;;;;;;4933978;29;20055;-74
2021/12/06 00:07:17;;;;;;;2.95;1.90;;;10.80;99.90;;;;;;4933975;29;20617;-75
2021/12/06 00:10:21;;;;;;;11.02;3.65;;;10.70;99.90;;;;;;4934265;29;20055;-76
2021/12/06 00:13:27;;;;;;;19.55;9.88;;;10.70;99.90;;;;;;4934405;29;20503;-76
2021/12/06 00:16:32;;;;;;;18.60;10.55;;;10.60;99.90;;;;;;4934084;29;20067;-75
2021/12/06 00:19:37;;;;;;;17.02;8.80;;;10.50;99.90;;;;;;4934350;29;20503;-74
2021/12/06 00:22:42;;;;;;;11.48;4.97;;;10.40;99.90;;;;;;4934061;29;20051;-77
2021/12/06 00:25:46;;;;;;;7.30;3.60;;;10.40;99.90;;;;;;4934001;29;20039;-74
2021/12/06 00:28:56;;;;;;;9.25;3.63;;;10.50;99.90;;;;;;4933809;29;20054;-75
2021/12/06 00:32:01;;;;;;;5.75;2.90;;;10.50;99.90;;;;;;4934044;29;20059;-75
2021/12/06 00:35:06;;;;;;;5.32;2.33;;;10.50;99.90;;;;;;4933823;29;20400;-74
2021/12/06 00:38:11;;;;;;;6.75;2.78;;;10.60;99.90;;;;;;4933848;29;20051;-76
2021/12/06 00:41:15;;;;;;;7.93;2.67;;;10.60;99.90;;;;;;4933820;29;20059;-75
2021/12/06 00:44:19;;;;;;;8.70;3.10;;;10.60;99.90;;;;;;4933036;29;20543;-74
2021/12/06 00:47:23;;;;;;;11.95;5.25;;;10.70;99.90;;;;;;4932925;29;20050;-74
2021/12/06 00:50:31;;;;;;;14.75;5.50;;;10.80;99.90;;;;;;4933662;29;20054;-74
2021/12/06 00:53:35;;;;;;;15.52;6.10;;;10.80;99.90;;;;;;4933750;29;20400;-75
2021/12/06 00:56:39;;;;;;;12.07;5.55;;;10.90;99.90;;;;;;4932826;29;20507;-75
2021/12/06 00:59:45;;;;;;;14.07;6.63;;;10.90;99.90;;;;;;4932920;29;20050;-76
2021/12/06 01:02:49;;;;;;;10.85;5.78;;;10.90;99.90;;;;;;4932865;29;20058;-75
2021/12/06 01:05:54;;;;;;;15.15;6.10;;;11.00;99.90;;;;;;4932926;29;20051;-76
2021/12/06 01:08:58;;;;;;;12.80;5.60;;;10.90;99.90;;;;;;4933337;29;20046;-75
2021/12/06 01:12:04;;;;;;;11.25;5.07;;;10.90;99.90;;;;;;4933521;29;20051;-75
2021/12/06 01:15:08;;;;;;;9.98;3.38;;;10.90;99.90;;;;;;4933560;29;20066;-75
2021/12/06 01:18:15;;;;;;;9.60;3.25;;;11.00;99.90;;;;;;4932540;29;20055;-76
2021/12/06 01:21:42;;;;;;;7.25;2.90;;;10.90;99.90;;;;;;4936295;29;20051;-75
2021/12/06 01:41:23;;;;;;;4.15;1.70;;;10.90;99.90;;;;;;4935928;29;20046;-76
2021/12/06 01:44:30;;;;;;;9.00;2.08;;;10.90;99.90;;;;;;4936631;29;20051;-75
2021/12/06 01:47:44;;;;;;;5.90;1.98;;;10.70;99.90;;;;;;4936010;29;20519;-75
2021/12/06 01:50:53;;;;;;;12.40;3.15;;;10.70;99.90;;;;;;4935649;29;20058;-75
2021/12/06 01:53:59;;;;;;;6.88;2.05;;;10.60;99.90;;;;;;4935540;29;20601;-76
2021/12/06 01:57:04;;;;;;;9.25;1.90;;;10.60;99.90;;;;;;4935527;29;20050;-74
2021/12/06 02:00:33;;;;;;;11.82;2.45;;;10.50;99.90;;;;;;4935489;29;20047;-75
2021/12/06 02:03:43;;;;;;;6.65;1.90;;;10.50;99.90;;;;;;4935751;29;20054;-76
2021/12/06 02:06:48;;;;;;;6.15;2.00;;;10.50;99.90;;;;;;4935321;29;20613;-76
2021/12/06 02:09:54;;;;;;;6.25;2.17;;;10.50;99.90;;;;;;4935638;29;20046;-78
2021/12/06 02:12:59;;;;;;;5.45;2.35;;;10.50;99.90;;;;;;4935635;29;20046;-75
2021/12/06 02:16:05;;;;;;;8.15;2.00;;;10.50;99.90;;;;;;4935406;29;20051;-75
2021/12/06 02:19:18;;;;;;;3.20;2.00;;;10.50;99.90;;;;;;4935485;29;20055;-75
2021/12/06 02:22:25;;;;;;;4.85;2.08;;;10.50;99.90;;;;;;4935400;29;20543;-76
2021/12/06 02:25:29;;;;;;;9.88;3.08;;;10.50;99.90;;;;;;4935457;29;20051;-76
2021/12/06 02:28:35;;;;;;;3.38;2.05;;;10.50;99.90;;;;;;4935286;29;20087;-75
2021/12/06 02:31:40;;;;;;;6.75;2.30;;;10.40;99.90;;;;;;4934897;29;20400;-77
2021/12/06 02:34:49;;;;;;;6.40;1.80;;;10.50;99.90;;;;;;4934859;29;20066;-77
2021/12/06 02:37:55;;;;;;;5.95;1.90;;;10.50;99.90;;;;;;4935073;29;20134;-75
2021/12/06 02:40:59;;;;;;;7.32;2.17;;;10.50;99.90;;;;;;4935117;29;20066;-76
2021/12/06 02:44:04;;;;;;;5.20;1.77;;;10.50;99.90;;;;;;4934908;29;20046;-76
2021/12/06 02:47:09;;;;;;;6.07;1.77;;;10.40;99.90;;;;;;4935000;29;20392;-78
2021/12/06 02:50:13;;;;;;;3.55;2.10;;;10.30;99.90;;;;;;4934685;29;20062;-76
2021/12/06 02:53:20;;;;;;;6.93;3.30;;;10.20;99.90;;;;;;4935435;29;20058;-78
2021/12/06 02:56:49;;;;;;;6.57;3.50;;;10.10;99.90;;;;;;4934803;29;20050;-77
2021/12/06 02:59:53;;;;;;;7.28;3.65;;;10.00;99.90;;;;;;4935366;29;20058;-77
2021/12/06 03:02:57;;;;;;;7.38;3.97;;;10.10;99.90;;;;;;4935612;29;20420;-76
2021/12/06 03:06:02;;;;;;;8.30;3.97;;;10.10;99.90;;;;;;4934618;29;20054;-77
2021/12/06 03:09:12;;;;;;;6.00;3.20;;;10.30;99.90;;;;;;4935367;29;20067;-75
2021/12/06 03:12:21;;;;;;;8.13;2.97;;;10.40;99.90;;;;;;4935065;29;20055;-75
2021/12/06 03:15:26;;;;;;;8.43;3.53;;;10.50;99.90;;;;;;4935169;29;20050;-76
2021/12/06 03:18:31;;;;;;;3.70;2.40;;;10.40;99.90;;;;;;4935206;29;20054;-76
2021/12/06 03:21:37;;;;;;;5.00;2.42;;;10.40;99.90;;;;;;4934168;29;20047;-77
2021/12/06 03:24:42;;;;;;;7.80;2.33;;;10.40;99.90;;;;;;4934383;29;20055;-76
2021/12/06 03:27:46;;;;;;;7.55;2.40;;;10.30;99.90;;;;;;4934281;29;20043;-76
2021/12/06 03:30:51;;;;;;;4.65;1.67;;;10.30;99.90;;;;;;4934089;29;20074;-76
2021/12/06 03:33:56;;;;;;;6.13;2.83;;;10.20;99.90;;;;;;4933783;29;20050;-76
2021/12/06 03:37:03;;;;;;;8.85;2.45;;;10.10;99.90;;;;;;4934006;29;20100;-76
2021/12/06 03:40:10;;;;;;;7.70;2.85;;;10.00;99.90;;;;;;4923405;29;20059;-75
2021/12/06 03:43:15;;;;;;;6.22;3.30;;;10.10;99.90;;;;;;4933345;29;20042;-75
2021/12/06 03:46:21;;;;;;;6.55;4.45;;;10.10;99.90;;;;;;4933676;29;20059;-75
2021/12/06 03:49:27;;;;;;;9.32;5.15;;;10.00;99.90;;;;;;4933542;29;20046;-76
2021/12/06 03:52:31;;;;;;;10.68;5.93;;;9.80;99.90;;;;;;4934397;29;20042;-77
2021/12/06 03:55:37;;;;;;;8.20;4.72;;;9.80;99.90;;;;;;4933514;29;20047;-75
2021/12/06 03:58:44;;;;;;;7.93;4.50;;;9.80;99.90;;;;;;4933719;29;20043;-75
2021/12/06 04:01:48;;;;;;;14.15;4.88;;;9.80;99.90;;;;;;4933338;29;20047;-77
2021/12/06 04:04:57;;;;;;;11.75;6.07;;;9.70;99.90;;;;;;4933320;29;20054;-76
2021/12/06 04:08:05;;;;;;;13.00;7.70;;;9.60;99.90;;;;;;4933578;29;20404;-75
2021/12/06 04:11:10;;;;;;;12.70;7.60;;;9.60;99.90;;;;;;4933199;29;20510;-76
2021/12/06 04:14:15;;;;;;;12.70;8.50;;;9.60;99.90;;;;;;4934035;29;20042;-76
2021/12/06 04:17:20;;;;;;;18.80;9.30;;;9.50;99.90;;;;;;4934044;29;20105;-76
2021/12/06 04:20:26;;;;;;;15.75;9.73;;;9.60;99.90;;;;;;4933587;29;20046;-75
2021/12/06 04:23:32;;;;;;;12.57;8.10;;;9.80;99.90;;;;;;4933224;29;20051;-76
2021/12/06 04:26:38;;;;;;;10.77;6.70;;;9.70;99.90;;;;;;4933285;29;20047;-76
2021/12/06 04:29:46;;;;;;;13.70;6.18;;;9.90;99.90;;;;;;4933191;29;20511;-76
2021/12/06 04:32:54;;;;;;;10.48;5.43;;;9.80;99.90;;;;;;4933322;29;20420;-76
2021/12/06 04:35:58;;;;;;;10.02;4.72;;;9.70;99.90;;;;;;4932910;29;20416;-75
2021/12/06 04:39:05;;;;;;;9.73;4.38;;;9.80;99.90;;;;;;4933630;29;20043;-76
2021/12/06 04:42:10;;;;;;;5.68;3.92;;;9.80;99.90;;;;;;4933755;29;20374;-74
2021/12/06 04:45:15;;;;;;;6.55;2.83;;;9.80;99.90;;;;;;4933072;29;20047;-75
2021/12/06 04:48:19;;;;;;;8.18;3.00;;;9.80;99.90;;;;;;4933716;29;20043;-75
2021/12/06 04:51:23;;;;;;;5.75;2.88;;;9.80;99.90;;;;;;4933703;29;20060;-76
2021/12/06 04:54:31;;;;;;;7.25;2.40;;;9.70;99.90;;;;;;4936168;29;20035;-76
2021/12/06 04:57:41;;;;;;;5.20;2.08;;;9.60;99.90;;;;;;4925580;29;20039;-75
2021/12/06 05:00:53;;;;;;;6.78;2.00;;;9.60;99.90;;;;;;4937139;29;20056;-74
2021/12/06 05:04:03;;;;;;;8.98;2.10;;;9.50;99.90;;;;;;4936572;29;20121;-76
2021/12/06 05:07:12;;;;;;;6.30;1.80;;;9.40;99.90;;;;;;4937504;29;20040;-76
2021/12/06 05:10:17;;;;;;;7.50;1.98;;;9.40;99.90;;;;;;4936469;29;20129;-75
2021/12/06 05:13:22;;;;;;;6.95;2.20;;;9.40;99.90;;;;;;4936540;29;20044;-75
2021/12/06 05:16:26;;;;;;;4.30;2.10;;;9.40;99.90;;;;;;4937152;29;20042;-75
2021/12/06 05:19:31;;;;;;;5.72;2.08;;;9.50;99.90;;;;;;4936465;29;20544;-76
2021/12/06 05:22:35;;;;;;;4.03;2.40;;;9.40;99.90;;;;;;4937338;29;20036;-75
2021/12/06 05:25:40;;;;;;;5.40;2.38;;;9.40;99.90;;;;;;4936492;29;20047;-75
2021/12/06 05:28:46;;;;;;;4.53;2.03;;;9.40;99.90;;;;;;4936435;29;20507;-76
2021/12/06 05:31:56;;;;;;;4.30;1.17;;;9.50;99.90;;;;;;4936435;29;20499;-76
2021/12/06 05:35:07;;;;;;;1.65;0.90;;;9.60;99.90;;;;;;4935894;29;20043;-75
2021/12/06 05:38:12;;;;;;;3.00;1.10;;;9.70;99.90;;;;;;4936883;29;20500;-78
2021/12/06 05:41:16;;;;;;;5.57;1.08;;;9.60;99.90;;;;;;4936809;29;20040;-76
2021/12/06 05:44:20;;;;;;;2.80;0.93;;;9.50;99.90;;;;;;4937069;29;20124;-76
2021/12/06 05:47:24;;;;;;;2.45;0.90;;;9.50;99.90;;;;;;4936767;29;20511;-77
2021/12/06 05:50:28;;;;;;;1.55;0.85;;;9.40;99.90;;;;;;4936097;29;20051;-76
2021/12/06 05:53:33;;;;;;;0.90;0.60;;;9.30;99.90;;;;;;4936674;29;20042;-75
2021/12/06 05:56:40;;;;;;;2.70;0.95;;;9.30;99.90;;;;;;4936499;29;20054;-76
2021/12/06 05:59:45;;;;;;;2.78;1.02;;;9.20;99.90;;;;;;4936205;29;20044;-74
2021/12/06 06:02:49;;;;;;;3.28;0.93;;;9.30;99.90;;;;;;4936527;29;20062;-74
2021/12/06 06:05:53;;;;;;;5.13;1.20;;;9.50;99.90;;;;;;4935446;29;20052;-74
2021/12/06 06:08:58;;;;;;;3.03;1.25;;;9.60;99.90;;;;;;4936356;29;20043;-74
2021/12/06 06:12:04;;;;;;;3.88;1.10;;;9.70;99.90;;;;;;4936052;29;20051;-74
2021/12/06 06:15:09;;;;;;;4.15;1.63;;;9.70;99.90;;;;;;4936210;29;20044;-74
2021/12/06 06:18:13;;;;;;;6.18;1.95;;;9.70;99.90;;;;;;4936345;29;20054;-74
2021/12/06 06:21:21;;;;;;;3.88;2.10;;;9.60;99.90;;;;;;4936331;29;20039;-75
2021/12/06 06:24:25;;;;;;;5.50;2.30;;;9.60;99.90;;;;;;4936317;29;20067;-75
2021/12/06 06:27:29;;;;;;;4.60;2.95;;;9.70;99.90;;;;;;4936763;29;20049;-75
2021/12/06 06:30:33;;;;;;;6.05;2.90;;;9.80;99.90;;;;;;4935826;29;20404;-75
2021/12/06 06:33:37;;;;;;;11.20;4.25;;;9.80;99.90;;;;;;4936121;29;20038;-75
2021/12/06 06:36:42;;;;;;;9.50;4.05;;;9.80;99.90;;;;;;4936046;29;20075;-75
2021/12/06 06:39:45;;;;;;;8.57;4.63;;;9.70;99.90;;;;;;4935766;29;20046;-71
2021/12/06 06:42:50;;;;;;;5.78;3.53;;;9.70;99.90;;;;;;4936285;29;20036;-71
2021/12/06 06:45:54;;;;;;;8.18;3.70;;;9.60;99.90;;;;;;4936439;29;20039;-71
2021/12/06 06:48:58;;;;;;;9.20;3.80;;;9.50;99.90;;;;;;4935763;29;20036;-73
2021/12/06 06:52:03;;;;;;;8.45;4.05;;;9.50;99.90;;;;;;4935348;29;20051;-73
2021/12/06 06:55:07;;;;;;;14.57;10.75;;;9.50;99.90;;;;;;4935747;29;20515;-71
2021/12/06 06:58:11;;;;;;;13.35;3.85;;;9.50;99.90;;;;;;4935599;29;20420;-72
2021/12/06 07:01:15;;;;;;;10.35;4.88;;;9.60;99.90;;;;;;4935271;29;20059;-73
2021/12/06 07:04:19;;;;;;;9.05;4.10;;;9.50;99.90;;;;;;4935480;29;20055;-72
2021/12/06 07:07:24;;;;;;;11.60;4.97;;;9.50;99.90;;;;;;4935203;29;20039;-73
2021/12/06 07:10:28;;;;;;;6.18;4.30;;;9.50;99.90;;;;;;4935044;29;20074;-73
2021/12/06 07:13:37;;;;;;;8.20;4.15;;;9.50;99.90;;;;;;4935176;29;20036;-72
2021/12/06 07:16:42;;;;;;;11.70;4.40;;;9.50;99.90;;;;;;4935061;29;20059;-72
2021/12/06 07:19:46;;;;;;;10.10;4.85;;;9.40;99.90;;;;;;4935091;29;20109;-72
2021/12/06 07:22:52;;;;;;;8.88;3.58;;;9.50;99.90;;;;;;4935308;29;20051;-70
2021/12/06 07:25:56;;;;;;;7.45;3.60;;;9.50;99.90;;;;;;4934689;29;20039;-69
2021/12/06 07:29:01;;;;;;;5.35;3.10;;;9.50;99.90;;;;;;4934989;29;20046;-69
2021/12/06 07:32:05;;;;;;;4.75;2.53;;;9.60;99.90;;;;;;4934675;29;20644;-69
2021/12/06 07:35:10;;;;;;;15.70;7.47;;;9.60;99.90;;;;;;4934642;29;20047;-69
2021/12/06 07:38:14;;;;;;;17.25;8.15;;;9.50;99.90;;;;;;4934573;29;20058;-70
2021/12/06 07:41:21;;;;;;;10.15;5.60;;;9.50;99.90;;;;;;4934668;29;20050;-70
2021/12/06 07:44:25;;;;;;;12.55;6.53;;;9.60;99.90;;;;;;4934422;29;20050;-69
2021/12/06 07:47:29;;;;;;;11.93;5.53;;;9.70;99.90;;;;;;4934331;29;20043;-70
2021/12/06 07:50:33;;;;;;;9.30;4.93;;;9.80;99.90;;;;;;4934579;29;20129;-71
2021/12/06 07:53:39;;;;;;;6.32;3.55;;;9.90;99.90;;;;;;4934574;29;20052;-74
2021/12/06 07:56:45;;;;;;;6.53;3.17;;;9.90;99.90;;;;;;4934324;29;20133;-71
2021/12/06 07:59:49;;;;;;;6.47;3.45;;;10.10;99.90;;;;;;4934285;29;20042;-69
2021/12/06 08:02:54;;;;;;;12.40;5.35;;;10.10;99.90;;;;;;4933853;29;20043;-71
2021/12/06 08:05:59;;;;;;;9.07;5.18;;;10.20;99.90;;;;;;4934083;29;20055;-72
2021/12/06 08:09:04;;;;;;;11.80;5.35;;;10.30;99.90;;;;;;4934070;29;20042;-69
2021/12/06 08:12:08;;;;;;;12.00;6.40;;;10.40;99.90;;;;;;4932868;29;20531;-71
2021/12/06 08:15:12;;;;;;;8.05;5.88;;;10.40;99.90;;;;;;4933789;29;20412;-69
2021/12/06 08:18:17;;;;;;;14.43;5.65;;;10.50;99.90;;;;;;4934011;29;20054;-68
2021/12/06 08:21:22;;;;;;;9.18;5.00;;;10.50;99.90;;;;;;4933731;29;20396;-68
2021/12/06 08:24:26;;;;;;;9.88;4.80;;;10.60;99.90;;;;;;4933637;29;20047;-68
2021/12/06 08:27:30;;;;;;;11.23;5.35;;;10.60;99.90;;;;;;4933526;29;20050;-70
2021/12/06 08:30:34;;;;;;;7.40;5.55;;;10.60;99.90;;;;;;4933759;29;20116;-69
2021/12/06 08:33:39;;;;;;;15.20;8.80;;;10.50;99.90;;;;;;4933797;29;20050;-70
2021/12/06 08:36:44;;;;;;;16.55;7.90;;;10.40;99.90;;;;;;4933613;29;20058;-69
2021/12/06 08:39:47;;;;;;;13.63;6.25;;;10.30;99.90;;;;;;4933625;29;20067;-69
2021/12/06 08:42:51;;;;;;;11.50;6.85;;;10.20;99.90;;;;;;4933689;29;20051;-68
2021/12/06 08:45:59;;;;;;;11.30;6.65;;;10.20;99.90;;;;;;4933567;29;20047;-68
2021/12/06 08:49:05;;;;;;;12.05;7.38;;;10.20;99.90;;;;;;4933465;29;20043;-68
2021/12/06 08:52:10;;;;;;;14.52;7.50;;;10.20;99.90;;;;;;4933360;29;20058;-68
2021/12/06 08:55:15;;;;;;;16.38;7.57;;;10.20;99.90;;;;;;4933998;29;20055;-68
2021/12/06 08:58:20;;;;;;;13.55;7.22;;;10.20;99.90;;;;;;4933682;29;20050;-68
2021/12/06 09:01:25;;;;;;;16.25;7.25;;;10.10;99.90;;;;;;4933441;29;20112;-69
2021/12/06 09:04:34;;;;;;;13.10;7.13;;;10.10;99.90;;;;;;4933167;29;20051;-69
2021/12/06 09:07:38;;;;;;;16.42;8.13;;;10.10;99.90;;;;;;4933420;29;20046;-70
2021/12/06 09:10:44;;;;;;;14.93;6.47;;;10.20;99.90;;;;;;4933477;29;20055;-69
2021/12/06 09:13:48;;;;;;;10.90;6.78;;;10.40;99.90;;;;;;4932609;29;20071;-69
2021/12/06 09:16:52;;;;;;;7.45;5.82;;;10.50;99.90;;;;;;4933221;29;20116;-69
2021/12/06 09:19:56;;;;;;;14.63;7.80;;;10.50;99.90;;;;;;4933642;29;20079;-69
2021/12/06 09:23:00;;;;;;;15.55;9.30;;;10.40;99.90;;;;;;4933665;29;20066;-68
2021/12/06 09:26:05;;;;;;;14.23;9.48;;;10.40;99.90;;;;;;4933268;29;20043;-68
2021/12/06 09:29:09;;;;;;;15.75;9.10;;;10.30;99.90;;;;;;4933223;29;20530;-68
2021/12/06 09:32:14;;;;;;;19.52;9.15;;;10.40;99.90;;;;;;4932933;29;20408;-70
2021/12/06 09:35:24;;;;;;;15.18;9.20;;;10.30;99.90;;;;;;4932676;29;20058;-68
2021/12/06 09:38:38;;;;;;;14.70;8.60;;;10.30;99.90;;;;;;4933041;29;20051;-67
2021/12/06 09:41:42;;;;;;;18.67;8.80;;;10.30;99.90;;;;;;4936422;29;20598;-67
2021/12/06 09:44:47;;;;;;;12.38;6.75;;;10.30;99.90;;;;;;4936704;29;20055;-68
2021/12/06 09:47:53;;;;;;;14.15;7.40;;;10.30;99.90;;;;;;4936389;29;20055;-69
2021/12/06 09:51:03;;;;;;;14.00;7.05;;;10.20;99.90;;;;;;4936350;29;20522;-68
2021/12/06 09:54:09;;;;;;;13.13;6.55;;;10.20;99.90;;;;;;4936139;29;20043;-68
2021/12/06 09:57:13;;;;;;;17.88;10.20;;;10.20;99.90;;;;;;4936183;29;20046;-68
2021/12/06 10:00:22;;;;;;;12.75;7.18;;;10.30;99.90;;;;;;4936100;29;20526;-68
2021/12/06 10:03:29;;;;;;;14.35;6.40;;;10.20;99.90;;;;;;4936252;29;20527;-68
2021/12/06 10:06:34;;;;;;;10.35;6.03;;;10.30;99.90;;;;;;4936399;29;20126;-68
2021/12/06 10:09:40;;;;;;;8.45;5.25;;;10.40;99.90;;;;;;4936250;29;20303;-68
2021/12/06 10:12:48;;;;;;;8.98;5.80;;;10.40;99.90;;;;;;4936035;29;20397;-69
2021/12/06 10:15:53;;;;;;;9.88;5.53;;;10.40;99.90;;;;;;4935745;29;20042;-68
2021/12/06 10:18:57;;;;;;;11.95;5.65;;;10.50;99.90;;;;;;4936129;29;20503;-68
2021/12/06 10:22:02;;;;;;;7.88;4.90;;;10.50;99.90;;;;;;4935966;29;20046;-70
2021/12/06 10:25:07;;;;;;;10.90;5.63;;;10.50;99.90;;;;;;4935747;29;20043;-68
2021/12/06 10:28:12;;;;;;;11.63;6.32;;;10.50;99.90;;;;;;4936018;29;20048;-68
2021/12/06 10:31:16;;;;;;;12.55;6.22;;;10.60;99.90;;;;;;4935709;29;20047;-68
2021/12/06 10:34:25;;;;;;;13.07;6.10;;;10.60;99.90;;;;;;4935740;29;20412;-69
2021/12/06 10:37:36;;;;;;;7.80;4.97;;;10.70;99.90;;;;;;4935495;29;20050;-70
2021/12/06 10:40:42;;;;;;;11.13;6.13;;;10.80;99.90;;;;;;4935348;29;20046;-68
2021/12/06 10:43:52;;;;;;;8.77;5.88;;;10.90;99.90;;;;;;4935508;29;20072;-68
2021/12/06 10:46:56;;;;;;;9.65;5.82;;;11.00;99.90;;;;;;4934357;29;20051;-68
2021/12/06 10:50:13;;;;;;;12.98;6.05;;;11.00;99.90;;;;;;4934062;29;20384;-68
2021/12/06 10:53:23;;;;;;;14.13;6.30;;;11.00;99.90;;;;;;4934446;29;20078;-68
2021/12/06 10:56:39;;;;;;;11.32;7.05;;;10.90;99.90;;;;;;4934270;29;20050;-68
2021/12/06 10:59:43;;;;;;;11.45;6.85;;;10.90;99.90;;;;;;4934022;29;20043;-68
2021/12/06 11:02:50;;;;;;;6.43;4.35;;;11.00;99.90;;;;;;4934011;29;20043;-68
2021/12/06 11:06:03;;;;;;;5.53;3.80;;;11.00;99.90;;;;;;4934663;29;20519;-67
2021/12/06 11:09:07;;;;;;;10.60;4.18;;;11.00;99.90;;;;;;4935178;29;20047;-67
2021/12/06 11:12:18;;;;;;;6.78;3.53;;;11.00;99.90;;;;;;4934958;29;20515;-67
2021/12/06 11:15:22;;;;;;;4.32;2.65;;;11.00;99.60;;;;;;4934481;29;20042;-68
2021/12/06 11:18:36;;;;;;;4.75;2.38;;;11.00;99.80;;;;;;4934253;29;20054;-68
2021/12/06 11:21:44;;;;;;;3.53;2.30;;;11.00;99.70;;;;;;4934679;29;20494;-68
2021/12/06 11:24:51;;;;;;;4.70;1.88;;;11.00;99.30;;;;;;4934659;29;20476;-68
2021/12/06 11:27:55;;;;;;;6.30;1.50;;;11.00;98.10;;;;;;4934927;29;20043;-68
2021/12/06 11:31:05;;;;;;;3.75;2.72;;;11.00;97.60;;;;;;4934808;29;20047;-68
2021/12/06 11:34:10;;;;;;;7.82;3.70;;;11.00;98.40;;;;;;4934471;29;20058;-68
2021/12/06 11:37:33;;;;;;;6.35;3.55;;;11.00;99.20;;;;;;4934594;29;20051;-68
2021/12/06 11:40:39;;;;;;;6.25;3.50;;;11.00;99.40;;;;;;4934459;29;20427;-68
2021/12/06 11:43:43;;;;;;;9.40;6.15;;;10.90;99.30;;;;;;4934489;29;20392;-69
2021/12/06 11:46:54;;;;;;;5.03;3.10;;;10.90;99.50;;;;;;4934576;29;20482;-69
2021/12/06 11:49:59;;;;;;;;;;;10.80;97.80;;;;;;4934934;29;20071;-69
2021/12/06 11:53:05;;;;;;;7.00;2.80;;;10.80;98.40;;;;;;4934538;29;19919;-69
2021/12/06 11:56:13;;;;;;;3.45;2.05;;;10.90;97.40;;;;;;4934330;29;20400;-69
2021/12/06 11:59:19;;;;;;;3.10;2.00;;;10.80;96.90;;;;;;4934115;29;20042;-69
2021/12/06 12:02:37;;;;;;;4.05;1.52;;;10.80;97.80;;;;;;4933667;29;20046;-69
2021/12/06 12:05:41;;;;;;;2.97;2.13;;;10.80;97.00;;;;;;4933145;29;20059;-69
2021/12/06 12:08:45;;;;;;;3.67;2.50;;;10.70;98.10;;;;;;4934172;29;20055;-69
2021/12/06 12:12:07;;;;;;;5.78;3.20;;;10.70;98.10;;;;;;4933986;29;20059;-69
2021/12/06 12:15:12;;;;;;;3.50;2.55;;;10.70;98.60;;;;;;4934107;29;20134;-69
2021/12/06 12:18:16;;;;;;;2.97;1.80;;;10.70;98.50;;;;;;4933787;29;20424;-69
2021/12/06 12:21:20;;;;;;;3.05;1.80;;;10.60;97.00;;;;;;4934073;29;20054;-69
2021/12/06 12:24:24;;;;;;;3.78;2.20;;;10.50;97.00;;;;;;4933731;29;20039;-69
2021/12/06 12:30:33;;;;;;;6.45;2.38;;;10.50;97.70;;;;;;4932608;29;20365;-69
2021/12/06 12:33:38;;;;;;;3.33;2.33;;;10.40;97.80;;;;;;4933633;29;20054;-69
2021/12/06 12:36:43;;;;;;;2.10;1.48;;;10.40;98.30;;;;;;4933701;29;20424;-69
2021/12/06 12:39:59;;;;;;;5.05;2.47;;;10.40;97.50;;;;;;4933689;29;20050;-69
2021/12/06 12:43:10;;;;;;;3.35;2.05;;;10.40;97.50;;;;;;4933535;29;20047;-69
2021/12/06 12:46:19;;;;;;;2.60;1.80;;;10.50;97.60;;;;;;4933604;29;20507;-69
2021/12/06 12:49:30;;;;;;;2.72;2.13;;;10.50;95.90;;;;;;4933050;29;20051;-69
2021/12/06 12:52:37;;;;;;;9.85;2.78;;;10.60;96.00;;;;;;4933247;29;20055;-69
2021/12/06 12:55:43;;;;;;;3.92;2.90;;;10.50;96.20;;;;;;4933531;29;20054;-69
2021/12/06 12:58:47;;;;;;;5.07;2.88;;;10.50;96.30;;;;;;4933385;29;20051;-69
2021/12/06 13:02:17;;;;;;;3.17;2.30;;;10.50;96.30;;;;;;4933483;29;20054;-69
2021/12/06 13:05:26;;;;;;;5.53;3.50;;;10.40;96.10;;;;;;4932467;29;20063;-69
2021/12/06 13:08:36;;;;;;;3.58;2.67;;;10.50;96.60;;;;;;4933662;29;20519;-69
2021/12/06 13:11:55;;;;;;;6.28;4.50;;;10.50;97.30;;;;;;4933317;29;20043;-69
2021/12/06 13:15:14;;;;;;;7.68;4.05;;;10.50;96.30;;;;;;4935844;29;20055;-69
2021/12/06 13:18:30;;;;;;;12.57;7.43;;;10.40;96.10;;;;;;4937230;29;20163;-71
2021/12/06 13:21:45;;;;;;;7.72;3.97;;;10.40;96.20;;;;;;4936825;29;20538;-69
2021/12/06 13:24:49;;;;;;;6.53;3.90;;;10.50;96.30;;;;;;4936626;29;20329;-69
2021/12/06 13:28:05;;;;;;;4.72;3.20;;;10.50;95.50;;;;;;4936945;29;20046;-69
2021/12/06 13:31:09;;;;;;;4.45;2.08;;;10.50;95.60;;;;;;4936515;29;20120;-68
2021/12/06 13:34:25;;;;;;;2.72;1.80;;;10.50;95.30;;;;;;4936601;29;20519;-68
2021/12/06 13:37:30;;;;;;;4.30;1.45;;;10.40;95.20;;;;;;4936826;29;20046;-69
2021/12/06 13:40:41;;;;;;;3.15;2.20;;;10.40;94.70;;;;;;4937034;29;20050;-70
2021/12/06 13:44:07;;;;;;;3.95;2.60;;;10.40;94.50;;;;;;4936900;29;20051;-72
2021/12/06 13:47:21;;;;;;;2.40;1.75;;;10.40;94.60;;;;;;4936287;29;20051;-70
2021/12/06 13:50:30;;;;;;;4.60;2.22;;;10.40;94.60;;;;;;4936313;29;20049;-69
2021/12/06 13:53:35;;;;;;;4.40;2.58;;;10.30;93.80;;;;;;4936423;29;20051;-68
2021/12/06 13:56:47;;;;;;;5.65;3.08;;;10.20;94.00;;;;;;4936615;29;20396;-69
2021/12/06 13:59:57;;;;;;;5.90;2.05;;;10.30;94.20;;;;;;4936825;29;20062;-66
2021/12/06 14:03:02;;;;;;;3.17;2.35;;;10.30;94.30;;;;;;4936347;29;20046;-65
2021/12/06 14:06:12;;;;;;;2.85;2.00;;;10.30;94.20;;;;;;4935842;29;20050;-67
2021/12/06 14:09:18;;;;;;;4.18;2.45;;;10.30;94.20;;;;;;4936025;29;20046;-69
2021/12/06 14:12:27;;;;;;;5.00;2.63;;;10.30;93.70;;;;;;4935018;29;20059;-67
2021/12/06 14:15:47;;;;;;;3.67;1.80;;;10.20;94.00;;;;;;4936105;29;20069;-68
2021/12/06 14:18:51;;;;;;;3.58;2.03;;;10.20;93.70;;;;;;4936239;29;20045;-68
2021/12/06 14:21:57;;;;;;;2.97;1.50;;;10.10;94.10;;;;;;4936123;29;20550;-69
2021/12/06 14:25:03;;;;;;;18.58;4.07;;;10.10;93.40;;;;;;4935401;29;20389;-70
2021/12/06 14:28:10;;;;;;;2.45;1.58;;;10.10;93.70;;;;;;4935695;29;20051;-69
2021/12/06 14:31:14;;;;;;;2.03;1.30;;;10.10;93.40;;;;;;4935900;29;20396;-69
2021/12/06 14:34:26;;;;;;;2.35;1.55;;;10.10;93.90;;;;;;4935315;29;20519;-70
2021/12/06 14:37:30;;;;;;;4.45;1.95;;;10.10;93.70;;;;;;4936088;29;20046;-68
2021/12/06 14:40:34;;;;;;;3.97;1.90;;;10.10;93.90;;;;;;4935702;29;20055;-68
2021/12/06 14:43:39;;;;;;;4.07;2.03;;;10.00;93.90;;;;;;4935250;29;20503;-69
2021/12/06 14:46:44;;;;;;;3.28;1.30;;;10.00;93.80;;;;;;4935455;29;20050;-69
2021/12/06 14:49:48;;;;;;;2.40;1.60;;;10.00;93.50;;;;;;4935111;29;20042;-67
2021/12/06 14:52:54;;;;;;;2.13;1.17;;;10.00;93.50;;;;;;4935014;29;20128;-69
2021/12/06 14:56:11;;;;;;;2.30;1.38;;;10.00;93.10;;;;;;4934967;29;20046;-68
2021/12/06 14:59:24;;;;;;;2.17;1.27;;;10.00;93.30;;;;;;4935197;29;20051;-68
2021/12/06 15:02:34;;;;;;;2.55;1.52;;;10.00;93.10;;;;;;4935062;29;20046;-69
2021/12/06 15:05:40;;;;;;;2.90;1.33;;;9.90;93.10;;;;;;4934268;29;20075;-67
2021/12/06 15:08:48;;;;;;;5.03;2.55;;;9.90;92.70;;;;;;4935001;29;20407;-67
2021/12/06 15:11:55;;;;;;;3.78;2.47;;;10.00;93.50;;;;;;4935066;29;20047;-67
2021/12/06 15:14:59;;;;;;;2.45;1.23;;;10.00;93.00;;;;;;4935341;29;20054;-67
2021/12/06 15:18:06;;;;;;;1.67;1.25;;;10.00;93.20;;;;;;4934692;29;20047;-72
2021/12/06 15:21:13;;;;;;;4.25;1.70;;;10.10;93.20;;;;;;4935014;29;20046;-68
2021/12/06 15:24:18;;;;;;;3.20;1.42;;;10.10;93.40;;;;;;4934095;29;20046;-69
2021/12/06 15:27:30;;;;;;;4.78;2.03;;;10.10;92.90;;;;;;4934746;29;20039;-70
2021/12/06 15:30:35;;;;;;;3.90;1.98;;;10.10;92.90;;;;;;4934834;29;20400;-71
2021/12/06 15:33:41;;;;;;;2.40;1.63;;;10.10;92.70;;;;;;4934556;29;20178;-71
2021/12/06 15:36:46;;;;;;;2.30;1.45;;;10.20;92.40;;;;;;4934206;29;20066;-70
2021/12/06 15:39:50;;;;;;;3.00;1.30;;;10.20;92.00;;;;;;4934743;29;20054;-69
2021/12/06 15:42:54;;;;;;;2.50;1.60;;;10.20;91.70;;;;;;4934323;29;20051;-70
2021/12/06 15:46:00;;;;;;;5.45;2.40;;;10.30;92.00;;;;;;4934093;29;20047;-70
2021/12/06 15:49:05;;;;;;;2.70;1.55;;;10.30;92.70;;;;;;4934501;29;20047;-69
2021/12/06 15:52:15;;;;;;;4.47;2.78;;;10.40;91.50;;;;;;4934028;29;20058;-68
2021/12/06 15:55:24;;;;;;;3.25;2.03;;;10.40;91.50;;;;;;4934320;29;20063;-69
2021/12/06 15:58:28;;;;;;;3.97;2.28;;;10.40;91.30;;;;;;4934513;29;20054;-70
2021/12/06 16:01:40;;;;;;;3.65;1.55;;;10.30;91.50;;;;;;4934354;29;20051;-70
2021/12/06 16:04:47;;;;;;;3.55;1.80;;;10.30;91.30;;;;;;4933579;29;20054;-71
2021/12/06 16:07:55;;;;;;;11.35;6.90;;;10.40;91.40;;;;;;4933720;29;20051;-69
2021/12/06 16:11:01;;;;;;;9.65;5.35;;;10.30;91.10;;;;;;4933988;29;20463;-70
2021/12/06 16:14:06;;;;;;;2.35;1.50;;;10.30;91.40;;;;;;4933945;29;20408;-68
2021/12/06 16:17:11;;;;;;;5.60;1.70;;;10.40;91.10;;;;;;4934055;29;20058;-69
2021/12/06 16:20:16;;;;;;;4.45;2.60;;;10.40;90.80;;;;;;4933961;29;20062;-69
2021/12/06 16:23:34;;;;;;;4.90;2.03;;;10.40;91.00;;;;;;4934192;29;20034;-69
2021/12/06 16:26:41;;;;;;;7.03;1.88;;;10.40;91.20;;;;;;4933685;29;20514;-70
2021/12/06 16:29:50;;;;;;;3.40;2.08;;;10.30;90.90;;;;;;4933953;29;20054;-70